sensor_id;sensor_type;location;lat;lon;timestamp;pressure;altitude;pressure_sealevel;temperature;humidity
63607;BME280;71992;52.478;-1.918;2023-12-29T00:00:42;98420.56;;;7.12;88.34
63607;BME280;71992;52.478;-1.918;2023-12-29T00:03:16;98418.75;;;7.13;88.52
63607;BME280;71992;52.478;-1.918;2023-12-29T00:05:47;98426.72;;;7.13;89.12
63607;BME280;71992;52.478;-1.918;2023-12-29T00:08:21;98431.19;;;7.12;88.51
63607;BME280;71992;52.478;-1.918;2023-12-29T00:11:00;98431.19;;;7.12;88.28
63607;BME280;71992;52.478;-1.918;2023-12-29T00:13:41;98428.44;;;7.14;88.08
63607;BME280;71992;52.478;-1.918;2023-12-29T00:16:09;98422.38;;;7.11;87.99
63607;BME280;71992;52.478;-1.918;2023-12-29T00:18:45;98430.44;;;7.10;87.75
63607;BME280;71992;52.478;-1.918;2023-12-29T00:21:18;98407.63;;;7.07;86.59
63607;BME280;71992;52.478;-1.918;2023-12-29T00:23:52;98415.69;;;7.06;86.42
63607;BME280;71992;52.478;-1.918;2023-12-29T00:26:24;98429.72;;;7.08;86.46
63607;BME280;71992;52.478;-1.918;2023-12-29T00:28:59;98427.19;;;7.06;86.02
63607;BME280;71992;52.478;-1.918;2023-12-29T00:31:37;98437.81;;;7.06;86.03
63607;BME280;71992;52.478;-1.918;2023-12-29T00:34:12;98431.63;;;7.06;85.55
63607;BME280;71992;52.478;-1.918;2023-12-29T00:36:46;98432.59;;;7.05;86.20
63607;BME280;71992;52.478;-1.918;2023-12-29T00:39:23;98419.31;;;7.05;85.64
63607;BME280;71992;52.478;-1.918;2023-12-29T00:41:59;98423.66;;;7.06;85.87
63607;BME280;71992;52.478;-1.918;2023-12-29T00:44:30;98421.97;;;7.05;85.40
63607;BME280;71992;52.478;-1.918;2023-12-29T00:47:04;98417.50;;;7.05;85.29
63607;BME280;71992;52.478;-1.918;2023-12-29T00:49:39;98414.00;;;7.05;85.68
63607;BME280;71992;52.478;-1.918;2023-12-29T00:52:12;98410.38;;;7.06;85.10
63607;BME280;71992;52.478;-1.918;2023-12-29T00:54:43;98419.09;;;7.08;85.24
63607;BME280;71992;52.478;-1.918;2023-12-29T00:57:16;98422.47;;;7.10;85.45
63607;BME280;71992;52.478;-1.918;2023-12-29T00:59:48;98420.66;;;7.10;85.18
63607;BME280;71992;52.478;-1.918;2023-12-29T01:02:18;98425.03;;;7.11;85.65
63607;BME280;71992;52.478;-1.918;2023-12-29T01:04:52;98419.72;;;7.11;86.38
63607;BME280;71992;52.478;-1.918;2023-12-29T01:07:23;98402.97;;;7.11;86.79
63607;BME280;71992;52.478;-1.918;2023-12-29T01:09:56;98422.38;;;7.11;87.62
63607;BME280;71992;52.478;-1.918;2023-12-29T01:12:29;98424.19;;;7.11;88.11
63607;BME280;71992;52.478;-1.918;2023-12-29T01:15:01;98422.59;;;7.08;88.76
63607;BME280;71992;52.478;-1.918;2023-12-29T01:17:36;98421.75;;;7.08;89.51
63607;BME280;71992;52.478;-1.918;2023-12-29T01:20:10;98418.25;;;7.07;89.62
63607;BME280;71992;52.478;-1.918;2023-12-29T01:22:41;98410.28;;;7.07;89.82
63607;BME280;71992;52.478;-1.918;2023-12-29T01:25:13;98419.84;;;7.10;89.71
63607;BME280;71992;52.478;-1.918;2023-12-29T01:27:50;98410.28;;;7.07;89.95
63607;BME280;71992;52.478;-1.918;2023-12-29T01:30:26;98411.88;;;7.10;89.69
63607;BME280;71992;52.478;-1.918;2023-12-29T01:32:58;98400.50;;;7.08;89.82
63607;BME280;71992;52.478;-1.918;2023-12-29T01:35:32;98419.09;;;7.08;89.55
63607;BME280;71992;52.478;-1.918;2023-12-29T01:38:26;98408.47;;;7.08;88.84
63607;BME280;71992;52.478;-1.918;2023-12-29T01:40:59;98418.16;;;7.09;88.29
63607;BME280;71992;52.478;-1.918;2023-12-29T01:44:02;98407.41;;;7.10;88.63
63607;BME280;71992;52.478;-1.918;2023-12-29T01:46:25;98427.69;;;7.11;87.45
63607;BME280;71992;52.478;-1.918;2023-12-29T01:48:58;98425.78;;;7.14;87.47
63607;BME280;71992;52.478;-1.918;2023-12-29T01:51:34;98428.31;;;7.15;87.76
63607;BME280;71992;52.478;-1.918;2023-12-29T01:54:08;98413.34;;;7.14;87.84
63607;BME280;71992;52.478;-1.918;2023-12-29T01:56:43;98413.34;;;7.14;88.53
63607;BME280;71992;52.478;-1.918;2023-12-29T01:59:14;98415.25;;;7.12;88.99
63607;BME280;71992;52.478;-1.918;2023-12-29T02:01:46;98418.88;;;7.11;89.31
63607;BME280;71992;52.478;-1.918;2023-12-29T02:04:18;98411.88;;;7.10;89.43
63607;BME280;71992;52.478;-1.918;2023-12-29T02:06:52;98410.19;;;7.09;89.89
63607;BME280;71992;52.478;-1.918;2023-12-29T02:09:23;98415.59;;;7.07;89.80
63607;BME280;71992;52.478;-1.918;2023-12-29T02:11:56;98420.06;;;7.07;89.17
63607;BME280;71992;52.478;-1.918;2023-12-29T02:14:26;98427.19;;;7.06;89.17
63607;BME280;71992;52.478;-1.918;2023-12-29T02:17:05;98424.53;;;7.06;88.89
63607;BME280;71992;52.478;-1.918;2023-12-29T02:19:43;98425.47;;;7.05;88.54
63607;BME280;71992;52.478;-1.918;2023-12-29T02:22:16;98427.28;;;7.05;88.38
63607;BME280;71992;52.478;-1.918;2023-12-29T02:24:51;98423.88;;;7.03;88.67
63607;BME280;71992;52.478;-1.918;2023-12-29T02:27:29;98424.00;;;7.01;88.70
63607;BME280;71992;52.478;-1.918;2023-12-29T02:30:15;98416.16;;;7.00;88.79
63607;BME280;71992;52.478;-1.918;2023-12-29T02:32:53;98419.00;;;6.97;89.19
63607;BME280;71992;52.478;-1.918;2023-12-29T02:35:28;98430.50;;;6.97;89.36
63607;BME280;71992;52.478;-1.918;2023-12-29T02:37:59;98436.84;;;6.95;89.58
63607;BME280;71992;52.478;-1.918;2023-12-29T02:40:34;98417.44;;;6.94;90.01
63607;BME280;71992;52.478;-1.918;2023-12-29T02:43:06;98428.16;;;6.93;89.97
63607;BME280;71992;52.478;-1.918;2023-12-29T02:45:36;98431.69;;;6.93;90.02
63607;BME280;71992;52.478;-1.918;2023-12-29T02:48:07;98430.81;;;6.93;89.94
63607;BME280;71992;52.478;-1.918;2023-12-29T02:50:38;98426.38;;;6.93;89.77
63607;BME280;71992;52.478;-1.918;2023-12-29T02:53:09;98402.59;;;6.92;89.56
63607;BME280;71992;52.478;-1.918;2023-12-29T02:55:44;98413.31;;;6.90;89.50
63607;BME280;71992;52.478;-1.918;2023-12-29T02:58:15;98421.25;;;6.90;89.93
63607;BME280;71992;52.478;-1.918;2023-12-29T03:00:48;98424.88;;;6.89;89.99
63607;BME280;71992;52.478;-1.918;2023-12-29T03:03:19;98406.41;;;6.87;90.16
63607;BME280;71992;52.478;-1.918;2023-12-29T03:05:54;98425.13;;;6.86;90.24
63607;BME280;71992;52.478;-1.918;2023-12-29T03:08:27;98418.00;;;6.86;90.31
63607;BME280;71992;52.478;-1.918;2023-12-29T03:11:05;98430.19;;;6.89;90.07
63607;BME280;71992;52.478;-1.918;2023-12-29T03:13:38;98433.78;;;6.88;89.59
63607;BME280;71992;52.478;-1.918;2023-12-29T03:16:09;98439.22;;;6.86;89.72
63607;BME280;71992;52.478;-1.918;2023-12-29T03:18:41;98436.56;;;6.86;88.47
63607;BME280;71992;52.478;-1.918;2023-12-29T03:21:12;98433.06;;;6.86;88.11
63607;BME280;71992;52.478;-1.918;2023-12-29T03:23:45;98447.38;;;6.83;87.69
63607;BME280;71992;52.478;-1.918;2023-12-29T03:26:21;98428.94;;;6.82;87.07
63607;BME280;71992;52.478;-1.918;2023-12-29T03:28:51;98429.13;;;6.79;87.09
63607;BME280;71992;52.478;-1.918;2023-12-29T03:31:25;98433.00;;;6.75;86.28
63607;BME280;71992;52.478;-1.918;2023-12-29T03:33:55;98423.41;;;6.72;86.56
63607;BME280;71992;52.478;-1.918;2023-12-29T03:36:31;98412.19;;;6.68;86.36
63607;BME280;71992;52.478;-1.918;2023-12-29T03:39:07;98416.75;;;6.66;86.19
63607;BME280;71992;52.478;-1.918;2023-12-29T03:41:43;98418.66;;;6.64;86.60
63607;BME280;71992;52.478;-1.918;2023-12-29T03:44:22;98425.78;;;6.64;86.86
63607;BME280;71992;52.478;-1.918;2023-12-29T03:46:54;98426.94;;;6.60;87.83
63607;BME280;71992;52.478;-1.918;2023-12-29T03:49:25;98412.22;;;6.56;88.37
63607;BME280;71992;52.478;-1.918;2023-12-29T03:51:59;98426.31;;;6.56;89.12
63607;BME280;71992;52.478;-1.918;2023-12-29T03:54:30;98419.41;;;6.54;90.28
63607;BME280;71992;52.478;-1.918;2023-12-29T03:57:04;98418.66;;;6.52;91.14
63607;BME280;71992;52.478;-1.918;2023-12-29T03:59:38;98428.44;;;6.51;92.25
63607;BME280;71992;52.478;-1.918;2023-12-29T04:02:08;98426.84;;;6.48;93.18
63607;BME280;71992;52.478;-1.918;2023-12-29T04:04:41;98414.56;;;6.47;95.03
63607;BME280;71992;52.478;-1.918;2023-12-29T04:07:12;98409.59;;;6.43;96.07
63607;BME280;71992;52.478;-1.918;2023-12-29T04:09:43;98416.66;;;6.42;96.83
63607;BME280;71992;52.478;-1.918;2023-12-29T04:12:17;98405.44;;;6.39;97.23
63607;BME280;71992;52.478;-1.918;2023-12-29T04:14:48;98416.25;;;6.36;98.17
63607;BME280;71992;52.478;-1.918;2023-12-29T04:17:18;98413.91;;;6.31;98.04
63607;BME280;71992;52.478;-1.918;2023-12-29T04:19:49;98419.88;;;6.35;97.65
63607;BME280;71992;52.478;-1.918;2023-12-29T04:22:22;98416.38;;;6.34;97.56
63607;BME280;71992;52.478;-1.918;2023-12-29T04:24:53;98417.31;;;6.33;97.65
63607;BME280;71992;52.478;-1.918;2023-12-29T04:27:32;98419.97;;;6.33;98.35
63607;BME280;71992;52.478;-1.918;2023-12-29T04:30:04;98426.13;;;6.34;98.24
63607;BME280;71992;52.478;-1.918;2023-12-29T04:32:35;98414.66;;;6.33;97.93
63607;BME280;71992;52.478;-1.918;2023-12-29T04:35:08;98424.31;;;6.34;98.14
63607;BME280;71992;52.478;-1.918;2023-12-29T04:37:44;98426.97;;;6.34;97.85
63607;BME280;71992;52.478;-1.918;2023-12-29T04:40:16;98427.91;;;6.33;98.04
63607;BME280;71992;52.478;-1.918;2023-12-29T04:42:50;98431.53;;;6.32;98.38
63607;BME280;71992;52.478;-1.918;2023-12-29T04:45:23;98428.78;;;6.34;98.46
63607;BME280;71992;52.478;-1.918;2023-12-29T04:47:56;98430.56;;;6.33;98.31
63607;BME280;71992;52.478;-1.918;2023-12-29T04:50:28;98425.25;;;6.33;97.82
63607;BME280;71992;52.478;-1.918;2023-12-29T04:53:01;98428.16;;;6.30;97.63
63607;BME280;71992;52.478;-1.918;2023-12-29T04:55:32;98433.53;;;6.28;97.43
63607;BME280;71992;52.478;-1.918;2023-12-29T04:58:06;98431.94;;;6.26;97.51
63607;BME280;71992;52.478;-1.918;2023-12-29T05:00:40;98432.91;;;6.25;97.12
63607;BME280;71992;52.478;-1.918;2023-12-29T05:03:11;98438.31;;;6.23;97.08
63607;BME280;71992;52.478;-1.918;2023-12-29T05:05:44;98437.66;;;6.20;97.16
63607;BME280;71992;52.478;-1.918;2023-12-29T05:08:15;98445.00;;;6.16;97.17
63607;BME280;71992;52.478;-1.918;2023-12-29T05:10:44;98446.91;;;6.14;96.96
63607;BME280;71992;52.478;-1.918;2023-12-29T05:13:16;98445.41;;;6.10;97.05
63607;BME280;71992;52.478;-1.918;2023-12-29T05:15:47;98454.09;;;6.12;97.02
63607;BME280;71992;52.478;-1.918;2023-12-29T05:18:18;98454.19;;;6.11;96.84
63607;BME280;71992;52.478;-1.918;2023-12-29T05:20:51;98451.78;;;6.07;96.88
63607;BME280;71992;52.478;-1.918;2023-12-29T05:23:28;98452.84;;;6.05;96.74
63607;BME280;71992;52.478;-1.918;2023-12-29T05:25:57;98450.19;;;6.05;96.63
63607;BME280;71992;52.478;-1.918;2023-12-29T05:28:31;98453.06;;;6.02;96.35
63607;BME280;71992;52.478;-1.918;2023-12-29T05:31:02;98458.34;;;6.02;96.16
63607;BME280;71992;52.478;-1.918;2023-12-29T05:33:34;98476.91;;;6.02;95.82
63607;BME280;71992;52.478;-1.918;2023-12-29T05:36:11;98469.97;;;5.99;95.87
63607;BME280;71992;52.478;-1.918;2023-12-29T05:38:45;98466.63;;;5.97;95.53
63607;BME280;71992;52.478;-1.918;2023-12-29T05:41:16;98474.44;;;5.99;95.57
63607;BME280;71992;52.478;-1.918;2023-12-29T05:43:54;98460.63;;;5.94;95.10
63607;BME280;71992;52.478;-1.918;2023-12-29T05:46:25;98473.69;;;5.97;95.15
63607;BME280;71992;52.478;-1.918;2023-12-29T05:48:58;98470.28;;;5.95;94.49
63607;BME280;71992;52.478;-1.918;2023-12-29T05:51:30;98472.09;;;5.94;94.91
63607;BME280;71992;52.478;-1.918;2023-12-29T05:54:02;98473.97;;;5.92;94.18
63607;BME280;71992;52.478;-1.918;2023-12-29T05:56:33;98478.50;;;5.90;93.65
63607;BME280;71992;52.478;-1.918;2023-12-29T05:59:05;98483.81;;;5.90;92.89
63607;BME280;71992;52.478;-1.918;2023-12-29T06:01:37;98465.38;;;5.89;93.11
63607;BME280;71992;52.478;-1.918;2023-12-29T06:04:08;98471.53;;;5.89;93.52
63607;BME280;71992;52.478;-1.918;2023-12-29T06:06:41;98472.59;;;5.86;93.26
63607;BME280;71992;52.478;-1.918;2023-12-29T06:09:15;98474.41;;;5.86;93.00
63607;BME280;71992;52.478;-1.918;2023-12-29T06:11:46;98467.47;;;5.83;92.81
63607;BME280;71992;52.478;-1.918;2023-12-29T06:14:21;98476.38;;;5.82;93.27
63607;BME280;71992;52.478;-1.918;2023-12-29T06:16:53;98475.63;;;5.80;93.39
63607;BME280;71992;52.478;-1.918;2023-12-29T06:19:24;98468.75;;;5.78;93.00
63607;BME280;71992;52.478;-1.918;2023-12-29T06:21:56;98471.41;;;5.78;93.08
63607;BME280;71992;52.478;-1.918;2023-12-29T06:24:27;98471.41;;;5.78;93.03
63607;BME280;71992;52.478;-1.918;2023-12-29T06:26:58;98478.69;;;5.74;92.49
63607;BME280;71992;52.478;-1.918;2023-12-29T06:29:32;98490.25;;;5.73;92.31
63607;BME280;71992;52.478;-1.918;2023-12-29T06:32:04;98488.66;;;5.71;91.59
63607;BME280;71992;52.478;-1.918;2023-12-29T06:34:35;98486.09;;;5.69;91.66
63607;BME280;71992;52.478;-1.918;2023-12-29T06:37:10;98489.72;;;5.68;91.88
63607;BME280;71992;52.478;-1.918;2023-12-29T06:39:42;98484.72;;;5.63;91.61
63607;BME280;71992;52.478;-1.918;2023-12-29T06:42:13;98491.69;;;5.64;91.12
63607;BME280;71992;52.478;-1.918;2023-12-29T06:44:47;98486.41;;;5.64;91.05
63607;BME280;71992;52.478;-1.918;2023-12-29T06:47:18;98488.19;;;5.64;90.49
63607;BME280;71992;52.478;-1.918;2023-12-29T06:49:49;98491.91;;;5.61;90.31
63607;BME280;71992;52.478;-1.918;2023-12-29T06:52:19;98506.06;;;5.60;89.92
63607;BME280;71992;52.478;-1.918;2023-12-29T06:55:01;98504.41;;;5.59;89.74
63607;BME280;71992;52.478;-1.918;2023-12-29T06:57:30;98522.19;;;5.57;88.60
63607;BME280;71992;52.478;-1.918;2023-12-29T07:00:05;98515.00;;;5.59;88.55
63607;BME280;71992;52.478;-1.918;2023-12-29T07:02:38;98520.06;;;5.62;88.18
63607;BME280;71992;52.478;-1.918;2023-12-29T07:05:11;98523.56;;;5.63;87.58
63607;BME280;71992;52.478;-1.918;2023-12-29T07:07:44;98515.63;;;5.63;87.47
63607;BME280;71992;52.478;-1.918;2023-12-29T07:10:19;98517.41;;;5.62;87.39
63607;BME280;71992;52.478;-1.918;2023-12-29T07:12:51;98508.53;;;5.63;87.56
63607;BME280;71992;52.478;-1.918;2023-12-29T07:15:24;98515.53;;;5.64;87.42
63607;BME280;71992;52.478;-1.918;2023-12-29T07:17:55;98520.06;;;5.62;86.99
63607;BME280;71992;52.478;-1.918;2023-12-29T07:20:32;98519.13;;;5.63;87.78
63607;BME280;71992;52.478;-1.918;2023-12-29T07:23:03;98521.78;;;5.63;87.81
63607;BME280;71992;52.478;-1.918;2023-12-29T07:25:34;98522.84;;;5.61;88.13
63607;BME280;71992;52.478;-1.918;2023-12-29T07:28:11;98530.78;;;5.61;88.24
63607;BME280;71992;52.478;-1.918;2023-12-29T07:30:46;98526.34;;;5.61;88.17
63607;BME280;71992;52.478;-1.918;2023-12-29T07:33:19;98528.97;;;5.61;87.72
63607;BME280;71992;52.478;-1.918;2023-12-29T07:35:53;98535.97;;;5.62;88.20
63607;BME280;71992;52.478;-1.918;2023-12-29T07:38:26;98531.63;;;5.61;88.01
63607;BME280;71992;52.478;-1.918;2023-12-29T07:40:59;98526.22;;;5.63;87.82
63607;BME280;71992;52.478;-1.918;2023-12-29T07:43:33;98541.16;;;5.64;87.94
63607;BME280;71992;52.478;-1.918;2023-12-29T07:46:07;98536.94;;;5.61;88.07
63607;BME280;71992;52.478;-1.918;2023-12-29T07:48:41;98532.47;;;5.62;87.99
63607;BME280;71992;52.478;-1.918;2023-12-29T07:51:12;98541.38;;;5.61;88.74
63607;BME280;71992;52.478;-1.918;2023-12-29T07:53:44;98545.81;;;5.60;88.26
63607;BME280;71992;52.478;-1.918;2023-12-29T07:56:16;98535.22;;;5.60;88.35
63607;BME280;71992;52.478;-1.918;2023-12-29T07:58:47;98533.31;;;5.62;88.46
63607;BME280;71992;52.478;-1.918;2023-12-29T08:01:21;98536.09;;;5.61;88.17
63607;BME280;71992;52.478;-1.918;2023-12-29T08:03:52;98540.50;;;5.60;88.16
63607;BME280;71992;52.478;-1.918;2023-12-29T08:06:24;98534.28;;;5.61;88.24
63607;BME280;71992;52.478;-1.918;2023-12-29T08:08:55;98548.38;;;5.62;88.09
63607;BME280;71992;52.478;-1.918;2023-12-29T08:11:26;98560.63;;;5.63;88.38
63607;BME280;71992;52.478;-1.918;2023-12-29T08:13:59;98547.31;;;5.64;88.07
63607;BME280;71992;52.478;-1.918;2023-12-29T08:16:40;98545.50;;;5.65;87.66
63607;BME280;71992;52.478;-1.918;2023-12-29T08:19:11;98547.31;;;5.64;87.81
63607;BME280;71992;52.478;-1.918;2023-12-29T08:21:44;98559.63;;;5.65;87.70
63607;BME280;71992;52.478;-1.918;2023-12-29T08:24:20;98572.88;;;5.65;87.53
63607;BME280;71992;52.478;-1.918;2023-12-29T08:26:52;98576.53;;;5.63;87.84
63607;BME280;71992;52.478;-1.918;2023-12-29T08:29:25;98574.84;;;5.62;87.85
63607;BME280;71992;52.478;-1.918;2023-12-29T08:32:00;98572.41;;;5.59;88.45
63607;BME280;71992;52.478;-1.918;2023-12-29T08:34:31;98568.88;;;5.58;88.85
63607;BME280;71992;52.478;-1.918;2023-12-29T08:37:05;98565.31;;;5.59;88.98
63607;BME280;71992;52.478;-1.918;2023-12-29T08:39:36;98572.28;;;5.60;89.46
63607;BME280;71992;52.478;-1.918;2023-12-29T08:42:31;98576.81;;;5.58;89.50
63607;BME280;71992;52.478;-1.918;2023-12-29T08:45:04;98596.03;;;5.62;89.54
63607;BME280;71992;52.478;-1.918;2023-12-29T08:47:38;98582.88;;;5.60;89.36
63607;BME280;71992;52.478;-1.918;2023-12-29T08:50:09;98603.13;;;5.61;89.88
63607;BME280;71992;52.478;-1.918;2023-12-29T08:52:40;98598.78;;;5.60;89.54
63607;BME280;71992;52.478;-1.918;2023-12-29T08:55:15;98593.38;;;5.62;89.75
63607;BME280;71992;52.478;-1.918;2023-12-29T08:57:52;98598.78;;;5.60;89.58
63607;BME280;71992;52.478;-1.918;2023-12-29T09:00:24;98599.66;;;5.61;89.83
63607;BME280;71992;52.478;-1.918;2023-12-29T09:03:01;98590.75;;;5.62;89.87
63607;BME280;71992;52.478;-1.918;2023-12-29T09:05:33;98598.59;;;5.63;89.62
63607;BME280;71992;52.478;-1.918;2023-12-29T09:08:01;98601.25;;;5.63;89.51
63607;BME280;71992;52.478;-1.918;2023-12-29T09:10:32;98593.28;;;5.63;89.59
63607;BME280;71992;52.478;-1.918;2023-12-29T09:13:05;98589.59;;;5.66;89.87
63607;BME280;71992;52.478;-1.918;2023-12-29T09:15:39;98586.84;;;5.68;89.89
63607;BME280;71992;52.478;-1.918;2023-12-29T09:18:13;98601.78;;;5.69;89.66
63607;BME280;71992;52.478;-1.918;2023-12-29T09:20:49;98595.66;;;5.68;89.82
63607;BME280;71992;52.478;-1.918;2023-12-29T09:23:24;98589.31;;;5.71;90.04
63607;BME280;71992;52.478;-1.918;2023-12-29T09:25:55;98597.13;;;5.72;89.91
63607;BME280;71992;52.478;-1.918;2023-12-29T09:28:27;98597.03;;;5.74;89.90
63607;BME280;71992;52.478;-1.918;2023-12-29T09:31:00;98600.44;;;5.76;89.72
63607;BME280;71992;52.478;-1.918;2023-12-29T09:33:40;98609.22;;;5.76;89.57
63607;BME280;71992;52.478;-1.918;2023-12-29T09:36:11;98611.72;;;5.79;89.88
63607;BME280;71992;52.478;-1.918;2023-12-29T09:38:45;98616.03;;;5.80;89.68
63607;BME280;71992;52.478;-1.918;2023-12-29T09:41:16;98610.75;;;5.80;89.69
63607;BME280;71992;52.478;-1.918;2023-12-29T09:43:49;98613.31;;;5.82;90.10
63607;BME280;71992;52.478;-1.918;2023-12-29T09:46:24;98624.66;;;5.84;89.67
63607;BME280;71992;52.478;-1.918;2023-12-29T09:49:02;98630.72;;;5.86;89.94
63607;BME280;71992;52.478;-1.918;2023-12-29T09:51:34;98626.25;;;5.86;89.84
63607;BME280;71992;52.478;-1.918;2023-12-29T09:54:03;98626.13;;;5.88;89.71
63607;BME280;71992;52.478;-1.918;2023-12-29T09:56:41;98604.09;;;5.88;89.45
63607;BME280;71992;52.478;-1.918;2023-12-29T10:02:00;98614.31;;;5.94;89.50
63607;BME280;71992;52.478;-1.918;2023-12-29T10:04:35;98608.75;;;5.98;89.85
63607;BME280;71992;52.478;-1.918;2023-12-29T10:07:06;98600.88;;;5.97;89.55
63607;BME280;71992;52.478;-1.918;2023-12-29T10:09:40;98613.00;;;6.01;89.45
63607;BME280;71992;52.478;-1.918;2023-12-29T10:12:15;98617.34;;;6.02;89.44
63607;BME280;71992;52.478;-1.918;2023-12-29T10:14:50;98622.34;;;6.06;89.38
63607;BME280;71992;52.478;-1.918;2023-12-29T10:17:29;98631.03;;;6.09;90.03
63607;BME280;71992;52.478;-1.918;2023-12-29T10:20:09;98640.41;;;6.14;90.30
63607;BME280;71992;52.478;-1.918;2023-12-29T10:22:48;98637.34;;;6.20;89.85
63607;BME280;71992;52.478;-1.918;2023-12-29T10:25:23;98632.91;;;6.21;89.54
63607;BME280;71992;52.478;-1.918;2023-12-29T10:27:56;98615.28;;;6.20;89.39
63607;BME280;71992;52.478;-1.918;2023-12-29T10:30:29;98622.38;;;6.19;88.69
63607;BME280;71992;52.478;-1.918;2023-12-29T10:33:03;98633.66;;;6.23;88.62
63607;BME280;71992;52.478;-1.918;2023-12-29T10:35:56;98632.69;;;6.24;88.24
63607;BME280;71992;52.478;-1.918;2023-12-29T10:38:30;98626.44;;;6.25;88.51
63607;BME280;71992;52.478;-1.918;2023-12-29T10:41:12;98614.88;;;6.26;88.16
63607;BME280;71992;52.478;-1.918;2023-12-29T10:43:48;98619.13;;;6.28;87.98
63607;BME280;71992;52.478;-1.918;2023-12-29T10:46:23;98624.44;;;6.28;88.13
63607;BME280;71992;52.478;-1.918;2023-12-29T10:49:06;98634.53;;;6.36;87.97
63607;BME280;71992;52.478;-1.918;2023-12-29T10:51:43;98624.47;;;6.41;88.26
63607;BME280;71992;52.478;-1.918;2023-12-29T10:54:19;98627.78;;;6.45;87.92
63607;BME280;71992;52.478;-1.918;2023-12-29T10:57:03;98628.41;;;6.48;87.85
63607;BME280;71992;52.478;-1.918;2023-12-29T10:59:34;98619.41;;;6.51;87.50
63607;BME280;71992;52.478;-1.918;2023-12-29T11:02:06;98628.00;;;6.55;87.89
63607;BME280;71992;52.478;-1.918;2023-12-29T11:04:43;98615.38;;;6.58;87.34
63607;BME280;71992;52.478;-1.918;2023-12-29T11:07:32;98622.50;;;6.58;86.57
63607;BME280;71992;52.478;-1.918;2023-12-29T11:10:08;98609.88;;;6.61;86.24
63607;BME280;71992;52.478;-1.918;2023-12-29T11:12:45;98592.06;;;6.63;86.59
63607;BME280;71992;52.478;-1.918;2023-12-29T11:15:21;98595.47;;;6.65;85.88
63607;BME280;71992;52.478;-1.918;2023-12-29T11:17:57;98623.59;;;6.68;85.53
63607;BME280;71992;52.478;-1.918;2023-12-29T11:20:30;98623.47;;;6.69;84.57
63607;BME280;71992;52.478;-1.918;2023-12-29T11:23:06;98632.28;;;6.70;84.76
63607;BME280;71992;52.478;-1.918;2023-12-29T11:25:38;98632.16;;;6.72;84.71
63607;BME280;71992;52.478;-1.918;2023-12-29T11:28:10;98628.59;;;6.73;83.31
63607;BME280;71992;52.478;-1.918;2023-12-29T11:30:42;98632.69;;;6.77;82.44
63607;BME280;71992;52.478;-1.918;2023-12-29T11:33:18;98637.91;;;6.78;82.80
63607;BME280;71992;52.478;-1.918;2023-12-29T11:35:58;98642.16;;;6.81;82.22
63607;BME280;71992;52.478;-1.918;2023-12-29T11:38:51;98647.38;;;6.82;80.97
63607;BME280;71992;52.478;-1.918;2023-12-29T11:41:29;98635.69;;;6.85;80.92
63607;BME280;71992;52.478;-1.918;2023-12-29T11:44:02;98633.03;;;6.85;80.68
63607;BME280;71992;52.478;-1.918;2023-12-29T11:46:39;98641.00;;;6.85;80.60
63607;BME280;71992;52.478;-1.918;2023-12-29T11:49:16;98649.94;;;6.84;80.46
63607;BME280;71992;52.478;-1.918;2023-12-29T11:51:52;98657.00;;;6.83;79.51
63607;BME280;71992;52.478;-1.918;2023-12-29T11:54:29;98653.75;;;6.80;79.41
63607;BME280;71992;52.478;-1.918;2023-12-29T11:57:03;98659.66;;;6.83;79.95
63607;BME280;71992;52.478;-1.918;2023-12-29T11:59:47;98657.97;;;6.82;80.09
63607;BME280;71992;52.478;-1.918;2023-12-29T12:02:33;98652.69;;;6.82;80.13
63607;BME280;71992;52.478;-1.918;2023-12-29T12:05:44;98648.13;;;6.84;80.40
63607;BME280;71992;52.478;-1.918;2023-12-29T12:08:30;98639.19;;;6.85;80.07
63607;BME280;71992;52.478;-1.918;2023-12-29T12:14:06;98642.59;;;6.87;80.34
63607;BME280;71992;52.478;-1.918;2023-12-29T12:16:51;98635.38;;;6.89;80.52
63607;BME280;71992;52.478;-1.918;2023-12-29T12:19:24;98641.34;;;6.93;80.86
63607;BME280;71992;52.478;-1.918;2023-12-29T12:21:58;98633.38;;;6.93;79.85
63607;BME280;71992;52.478;-1.918;2023-12-29T12:24:31;98635.06;;;6.94;80.71
63607;BME280;71992;52.478;-1.918;2023-12-29T12:27:09;98628.91;;;6.94;80.98
63607;BME280;71992;52.478;-1.918;2023-12-29T12:29:43;98630.59;;;6.95;80.79
63607;BME280;71992;52.478;-1.918;2023-12-29T12:32:18;98633.16;;;6.96;81.16
63607;BME280;71992;52.478;-1.918;2023-12-29T12:34:52;98638.38;;;6.98;81.12
63607;BME280;71992;52.478;-1.918;2023-12-29T12:37:26;98648.78;;;7.01;81.75
63607;BME280;71992;52.478;-1.918;2023-12-29T12:39:58;98646.13;;;7.01;81.15
63607;BME280;71992;52.478;-1.918;2023-12-29T12:42:32;98641.88;;;6.98;81.42
63607;BME280;71992;52.478;-1.918;2023-12-29T12:45:23;98637.41;;;6.99;81.87
63607;BME280;71992;52.478;-1.918;2023-12-29T12:48:02;98642.72;;;6.99;82.35
63607;BME280;71992;52.478;-1.918;2023-12-29T12:50:34;98635.81;;;6.96;83.20
63607;BME280;71992;52.478;-1.918;2023-12-29T12:53:06;98639.75;;;6.90;84.66
63607;BME280;71992;52.478;-1.918;2023-12-29T12:55:38;98639.50;;;6.81;85.97
63607;BME280;71992;52.478;-1.918;2023-12-29T12:58:12;98646.09;;;6.75;87.87
63607;BME280;71992;52.478;-1.918;2023-12-29T13:00:45;98655.31;;;6.69;88.52
63607;BME280;71992;52.478;-1.918;2023-12-29T13:03:22;98664.44;;;6.65;88.38
63607;BME280;71992;52.478;-1.918;2023-12-29T13:05:56;98668.03;;;6.64;89.12
63607;BME280;71992;52.478;-1.918;2023-12-29T13:08:29;98663.44;;;6.54;90.33
63607;BME280;71992;52.478;-1.918;2023-12-29T13:11:05;98673.16;;;6.40;90.36
63607;BME280;71992;52.478;-1.918;2023-12-29T13:13:41;98672.81;;;6.32;90.65
63607;BME280;71992;52.478;-1.918;2023-12-29T13:16:20;98665.06;;;6.29;91.71
63607;BME280;71992;52.478;-1.918;2023-12-29T13:19:17;98672.66;;;6.21;93.35
63607;BME280;71992;52.478;-1.918;2023-12-29T13:21:54;98674.94;;;6.13;93.38
63607;BME280;71992;52.478;-1.918;2023-12-29T13:24:25;98674.19;;;6.11;93.97
63607;BME280;71992;52.478;-1.918;2023-12-29T13:27:04;98662.75;;;6.10;94.55
63607;BME280;71992;52.478;-1.918;2023-12-29T13:29:35;98645.44;;;6.04;94.87
63607;BME280;71992;52.478;-1.918;2023-12-29T13:32:17;98660.06;;;5.97;94.90
63607;BME280;71992;52.478;-1.918;2023-12-29T13:34:55;98655.19;;;5.90;95.56
63607;BME280;71992;52.478;-1.918;2023-12-29T13:37:42;98645.72;;;5.85;96.19
63607;BME280;71992;52.478;-1.918;2023-12-29T13:40:22;98660.03;;;5.83;96.87
63607;BME280;71992;52.478;-1.918;2023-12-29T13:42:57;98646.03;;;5.81;96.77